QTR1C WMKK-OTHH
Flight info
| Callsign | QTR1C |
|---|---|
| Flight time | N/A |
| Altitude | 32000 |
| Route | IBUKU1D IBUKU Y504 GUNIP N571 IDASO P761 MMV/N0497F340 P574 TOTOX L555 TOLDA M628 TULBU N563 SODEX DCT UMIBU P899 TOVOX |
| Aircraft | B77W/H-SDE1E2E3FGHIJ2J3J4J5M1RWXY/LB1D1 |
Departure
| Time | 2026-04-30 12:20 |
|---|---|
| Airport | Kuala Lumpur International Airport (WMKK) |
Arrival
| Time | N/A |
|---|---|
| Airport | Hamad International Airport (OTHH) |
| Time | Latitude | Longitude | Altitude | Speed | Heading |
|---|---|---|---|---|---|
| 2026-04-30 12:06 | 2.74655 | 101.71280 | 77 ft | 0 kts | 326° |
| 2026-04-30 12:11 | 2.74649 | 101.71284 | 66 ft | 2 kts | 326° |
| 2026-04-30 12:11 | 2.74635 | 101.71293 | 66 ft | 2 kts | 328° |
| 2026-04-30 12:11 | 2.74621 | 101.71302 | 66 ft | 2 kts | 331° |
| 2026-04-30 12:12 | 2.74606 | 101.71309 | 66 ft | 2 kts | 340° |
| 2026-04-30 12:12 | 2.74590 | 101.71312 | 66 ft | 2 kts | 37° |
| 2026-04-30 12:12 | 2.74580 | 101.71299 | 66 ft | 2 kts | 56° |
| 2026-04-30 12:12 | 2.74570 | 101.71285 | 66 ft | 2 kts | 56° |
| 2026-04-30 12:13 | 2.74565 | 101.71278 | 66 ft | 1 kts | 56° |
| 2026-04-30 12:13 | 2.74564 | 101.71276 | 66 ft | 0 kts | 56° |
| 2026-04-30 12:14 | 2.74567 | 101.71280 | 66 ft | 2 kts | 56° |
| 2026-04-30 12:14 | 2.74578 | 101.71309 | 66 ft | 6 kts | 78° |
| 2026-04-30 12:15 | 2.74548 | 101.71352 | 72 ft | 9 kts | 146° |
| 2026-04-30 12:15 | 2.74488 | 101.71392 | 69 ft | 11 kts | 146° |
| 2026-04-30 12:15 | 2.74426 | 101.71434 | 69 ft | 10 kts | 146° |
| 2026-04-30 12:15 | 2.74391 | 101.71457 | 68 ft | 9 kts | 143° |
| 2026-04-30 12:16 | 2.74409 | 101.71559 | 68 ft | 14 kts | 58° |
| 2026-04-30 12:16 | 2.74459 | 101.71639 | 68 ft | 14 kts | 58° |
| 2026-04-30 12:16 | 2.74492 | 101.71693 | 68 ft | 14 kts | 58° |
| 2026-04-30 12:16 | 2.74550 | 101.71775 | 69 ft | 17 kts | 53° |
| 2026-04-30 12:17 | 2.74685 | 101.71967 | 85 ft | 17 kts | 56° |
| 2026-04-30 12:17 | 2.74759 | 101.72077 | 87 ft | 9 kts | 56° |
| 2026-04-30 12:17 | 2.74766 | 101.72087 | 88 ft | 0 kts | 56° |
| 2026-04-30 12:18 | 2.74772 | 101.72097 | 86 ft | 6 kts | 56° |
| 2026-04-30 12:18 | 2.74800 | 101.72138 | 87 ft | 12 kts | 56° |
| 2026-04-30 12:18 | 2.74881 | 101.72177 | 88 ft | 10 kts | 332° |
| 2026-04-30 12:19 | 2.74919 | 101.72153 | 86 ft | 10 kts | 327° |
| 2026-04-30 12:19 | 2.74981 | 101.72112 | 88 ft | 18 kts | 326° |
| 2026-04-30 12:19 | 2.75284 | 101.71907 | 83 ft | 88 kts | 326° |
| 2026-04-30 12:19 | 2.75968 | 101.71447 | 70 ft | 150 kts | 326° |
| 2026-04-30 12:20 | 2.76972 | 101.70774 | 163 ft | 189 kts | 327° |
| 2026-04-30 12:20 | 2.78108 | 101.70019 | 489 ft | 204 kts | 326° |
| 2026-04-30 12:20 | 2.79331 | 101.69203 | 826 ft | 217 kts | 327° |
| 2026-04-30 12:20 | 2.80711 | 101.68561 | 1190 ft | 223 kts | 348° |
| 2026-04-30 12:21 | 2.82231 | 101.68176 | 1640 ft | 228 kts | 341° |
| 2026-04-30 12:21 | 2.83753 | 101.67615 | 2010 ft | 240 kts | 339° |
| 2026-04-30 12:21 | 2.85368 | 101.67005 | 2256 ft | 256 kts | 339° |
| 2026-04-30 12:21 | 2.87041 | 101.66386 | 2681 ft | 264 kts | 340° |
| 2026-04-30 12:22 | 2.88780 | 101.65751 | 3216 ft | 268 kts | 340° |
| 2026-04-30 12:22 | 2.90536 | 101.65114 | 3804 ft | 269 kts | 341° |
| 2026-04-30 12:22 | 2.92303 | 101.64484 | 4426 ft | 270 kts | 342° |
| 2026-04-30 12:22 | 2.94089 | 101.63870 | 5049 ft | 272 kts | 343° |
| 2026-04-30 12:23 | 2.95850 | 101.63179 | 5578 ft | 275 kts | 329° |